Hannibal, Missouri
Current Conditions -  °F | °C
As of 3:55 AM on Sunday 25 Jan 2015 (Local Time) from KHAE Reporting Station
Light Snow Light Snow  
Wind Chill: 38°   Ceiling: 4600
Heat Index: 43°   Visibility: 7mi
Dew Point: 32°   Wind: 8mph
Humidity: 66%   Direction: 260°W
Pressure: 29.58"   Gusts: NA
Location:  39.7°N, 91.38°W
Report Text: KHAE 250955Z AUTO 26007KT 7SM -SN SCT029 SCT034 OVC046 06/00 A2958 RMK AO2
Loading
Personal Weather Stations






























Interactive Weather Map New forecast layout! Learn more

10-Day Weather Forecast

Advertisements
Track Severe Weather on mobile